sensor_id;sensor_type;location;lat;lon;timestamp;pressure;altitude;pressure_sealevel;temperature;humidity
70728;BME280;58314;47.722;17.652;2022-09-03T00:01:19;100450.47;;;13.28;98.37
70728;BME280;58314;47.722;17.652;2022-09-03T00:04:29;100449.56;;;13.28;97.73
70728;BME280;58314;47.722;17.652;2022-09-03T00:14:45;100443.88;;;13.19;98.10
70728;BME280;58314;47.722;17.652;2022-09-03T00:17:52;100443.06;;;13.17;97.62
70728;BME280;58314;47.722;17.652;2022-09-03T00:20:58;100446.16;;;13.10;97.46
70728;BME280;58314;47.722;17.652;2022-09-03T00:24:11;100442.59;;;13.11;97.19
70728;BME280;58314;47.722;17.652;2022-09-03T00:27:17;100446.00;;;12.97;98.59
70728;BME280;58314;47.722;17.652;2022-09-03T00:30:20;100440.63;;;12.98;98.01
70728;BME280;58314;47.722;17.652;2022-09-03T00:33:26;100440.69;;;12.97;98.21
70728;BME280;58314;47.722;17.652;2022-09-03T00:36:36;100445.66;;;13.03;98.34
70728;BME280;58314;47.722;17.652;2022-09-03T00:39:41;100454.38;;;13.05;97.42
70728;BME280;58314;47.722;17.652;2022-09-03T00:42:47;100453.53;;;13.05;97.98
70728;BME280;58314;47.722;17.652;2022-09-03T00:46:25;100456.34;;;12.86;98.68
70728;BME280;58314;47.722;17.652;2022-09-03T00:53:06;100463.91;;;12.93;99.36
70728;BME280;58314;47.722;17.652;2022-09-03T00:56:24;100455.75;;;12.80;100.00
70728;BME280;58314;47.722;17.652;2022-09-03T01:03:10;100457.03;;;12.40;100.00
70728;BME280;58314;47.722;17.652;2022-09-03T01:06:23;100462.81;;;12.48;100.00
70728;BME280;58314;47.722;17.652;2022-09-03T01:09:49;100455.59;;;12.34;100.00
70728;BME280;58314;47.722;17.652;2022-09-03T01:23:39;100464.63;;;12.30;100.00
70728;BME280;58314;47.722;17.652;2022-09-03T01:30:11;100462.75;;;12.15;100.00
70728;BME280;58314;47.722;17.652;2022-09-03T01:36:32;100460.88;;;12.17;100.00
70728;BME280;58314;47.722;17.652;2022-09-03T01:46:12;100460.38;;;12.10;100.00
70728;BME280;58314;47.722;17.652;2022-09-03T01:49:58;100465.75;;;12.09;100.00
70728;BME280;58314;47.722;17.652;2022-09-03T01:59:32;100459.50;;;11.92;100.00
70728;BME280;58314;47.722;17.652;2022-09-03T02:02:34;100460.47;;;11.91;100.00
70728;BME280;58314;47.722;17.652;2022-09-03T02:05:35;100458.16;;;11.83;100.00
70728;BME280;58314;47.722;17.652;2022-09-03T02:08:38;100461.69;;;11.84;100.00
70728;BME280;58314;47.722;17.652;2022-09-03T02:11:39;100464.47;;;11.81;100.00
70728;BME280;58314;47.722;17.652;2022-09-03T02:14:40;100465.72;;;11.74;100.00
70728;BME280;58314;47.722;17.652;2022-09-03T02:17:43;100465.47;;;11.78;100.00
70728;BME280;58314;47.722;17.652;2022-09-03T02:20:45;100475.22;;;11.78;100.00
70728;BME280;58314;47.722;17.652;2022-09-03T02:23:50;100462.44;;;11.68;100.00
70728;BME280;58314;47.722;17.652;2022-09-03T02:26:52;100469.69;;;11.65;100.00
70728;BME280;58314;47.722;17.652;2022-09-03T02:29:52;100468.97;;;11.61;100.00
70728;BME280;58314;47.722;17.652;2022-09-03T02:32:53;100461.25;;;11.57;100.00
70728;BME280;58314;47.722;17.652;2022-09-03T02:35:54;100466.91;;;11.49;100.00
70728;BME280;58314;47.722;17.652;2022-09-03T02:38:55;100472.22;;;11.49;100.00
70728;BME280;58314;47.722;17.652;2022-09-03T02:41:57;100468.84;;;11.45;100.00
70728;BME280;58314;47.722;17.652;2022-09-03T02:45:19;100463.56;;;11.45;100.00
70728;BME280;58314;47.722;17.652;2022-09-03T02:48:23;100469.81;;;11.44;100.00
70728;BME280;58314;47.722;17.652;2022-09-03T02:51:24;100474.78;;;11.50;100.00
70728;BME280;58314;47.722;17.652;2022-09-03T02:54:26;100470.50;;;11.48;100.00
70728;BME280;58314;47.722;17.652;2022-09-03T02:57:27;100475.03;;;11.46;100.00
70728;BME280;58314;47.722;17.652;2022-09-03T03:00:28;100478.75;;;11.42;100.00
70728;BME280;58314;47.722;17.652;2022-09-03T03:03:29;100475.19;;;11.43;100.00
70728;BME280;58314;47.722;17.652;2022-09-03T03:06:29;100477.63;;;11.47;100.00
70728;BME280;58314;47.722;17.652;2022-09-03T03:09:30;100481.75;;;11.53;100.00
70728;BME280;58314;47.722;17.652;2022-09-03T03:12:30;100474.16;;;11.45;100.00
70728;BME280;58314;47.722;17.652;2022-09-03T03:15:31;100471.19;;;11.34;100.00
70728;BME280;58314;47.722;17.652;2022-09-03T03:18:32;100472.75;;;11.38;100.00
70728;BME280;58314;47.722;17.652;2022-09-03T03:21:34;100475.00;;;11.28;100.00
70728;BME280;58314;47.722;17.652;2022-09-03T03:24:34;100478.50;;;11.10;100.00
70728;BME280;58314;47.722;17.652;2022-09-03T03:27:36;100478.06;;;11.19;100.00
70728;BME280;58314;47.722;17.652;2022-09-03T03:30:39;100479.94;;;11.17;100.00
70728;BME280;58314;47.722;17.652;2022-09-03T03:33:42;100496.84;;;11.15;100.00
70728;BME280;58314;47.722;17.652;2022-09-03T03:36:42;100491.03;;;11.06;100.00
70728;BME280;58314;47.722;17.652;2022-09-03T03:39:43;100496.97;;;10.92;100.00
70728;BME280;58314;47.722;17.652;2022-09-03T03:42:43;100496.53;;;11.02;100.00
70728;BME280;58314;47.722;17.652;2022-09-03T03:45:55;100500.78;;;11.06;100.00
70728;BME280;58314;47.722;17.652;2022-09-03T03:48:56;100498.53;;;10.97;100.00
70728;BME280;58314;47.722;17.652;2022-09-03T03:51:57;100496.66;;;10.99;100.00
70728;BME280;58314;47.722;17.652;2022-09-03T03:54:58;100497.47;;;11.01;100.00
70728;BME280;58314;47.722;17.652;2022-09-03T03:57:58;100493.38;;;10.93;100.00
70728;BME280;58314;47.722;17.652;2022-09-03T04:01:04;100493.81;;;10.84;100.00
70728;BME280;58314;47.722;17.652;2022-09-03T04:04:05;100496.53;;;10.83;100.00
70728;BME280;58314;47.722;17.652;2022-09-03T04:07:06;100497.41;;;10.83;100.00
70728;BME280;58314;47.722;17.652;2022-09-03T04:10:08;100499.25;;;10.81;100.00
70728;BME280;58314;47.722;17.652;2022-09-03T04:13:09;100499.78;;;10.69;100.00
70728;BME280;58314;47.722;17.652;2022-09-03T04:16:16;100508.19;;;10.79;100.00
70728;BME280;58314;47.722;17.652;2022-09-03T04:19:17;100515.84;;;10.85;100.00
70728;BME280;58314;47.722;17.652;2022-09-03T04:22:18;100513.41;;;10.80;100.00
70728;BME280;58314;47.722;17.652;2022-09-03T04:25:20;100513.34;;;10.82;100.00
70728;BME280;58314;47.722;17.652;2022-09-03T04:28:20;100520.16;;;10.87;100.00
70728;BME280;58314;47.722;17.652;2022-09-03T04:31:22;100509.63;;;10.86;100.00
70728;BME280;58314;47.722;17.652;2022-09-03T04:34:23;100507.91;;;10.85;100.00
70728;BME280;58314;47.722;17.652;2022-09-03T04:37:23;100501.47;;;10.90;100.00
70728;BME280;58314;47.722;17.652;2022-09-03T04:40:24;100514.72;;;10.90;100.00
70728;BME280;58314;47.722;17.652;2022-09-03T04:43:25;100523.38;;;10.94;100.00
70728;BME280;58314;47.722;17.652;2022-09-03T04:46:27;100521.38;;;10.99;100.00
70728;BME280;58314;47.722;17.652;2022-09-03T04:49:32;100519.66;;;10.98;100.00
70728;BME280;58314;47.722;17.652;2022-09-03T04:52:34;100521.00;;;11.07;100.00
70728;BME280;58314;47.722;17.652;2022-09-03T04:55:36;100526.16;;;11.10;100.00
70728;BME280;58314;47.722;17.652;2022-09-03T04:58:37;100542.34;;;11.23;100.00
70728;BME280;58314;47.722;17.652;2022-09-03T05:01:38;100531.66;;;11.24;100.00
70728;BME280;58314;47.722;17.652;2022-09-03T05:04:42;100536.13;;;11.24;100.00
70728;BME280;58314;47.722;17.652;2022-09-03T05:07:43;100542.78;;;11.33;100.00
70728;BME280;58314;47.722;17.652;2022-09-03T05:10:44;100535.41;;;11.39;100.00
70728;BME280;58314;47.722;17.652;2022-09-03T05:13:53;100538.44;;;11.49;100.00
70728;BME280;58314;47.722;17.652;2022-09-03T05:16:54;100535.72;;;11.50;100.00
70728;BME280;58314;47.722;17.652;2022-09-03T05:19:54;100532.72;;;11.58;100.00
70728;BME280;58314;47.722;17.652;2022-09-03T05:22:56;100533.19;;;11.66;100.00
70728;BME280;58314;47.722;17.652;2022-09-03T05:25:59;100543.59;;;11.71;100.00
70728;BME280;58314;47.722;17.652;2022-09-03T05:29:01;100539.69;;;11.78;100.00
70728;BME280;58314;47.722;17.652;2022-09-03T05:32:02;100544.56;;;11.87;100.00
70728;BME280;58314;47.722;17.652;2022-09-03T05:35:04;100529.84;;;11.99;100.00
70728;BME280;58314;47.722;17.652;2022-09-03T05:38:05;100541.09;;;12.04;100.00
70728;BME280;58314;47.722;17.652;2022-09-03T05:41:09;100541.50;;;12.14;100.00
70728;BME280;58314;47.722;17.652;2022-09-03T05:44:10;100537.03;;;12.32;100.00
70728;BME280;58314;47.722;17.652;2022-09-03T05:47:11;100538.28;;;12.42;100.00
70728;BME280;58314;47.722;17.652;2022-09-03T05:50:11;100540.63;;;12.49;100.00
70728;BME280;58314;47.722;17.652;2022-09-03T05:53:12;100540.91;;;12.60;100.00
70728;BME280;58314;47.722;17.652;2022-09-03T05:56:15;100542.06;;;12.72;100.00
70728;BME280;58314;47.722;17.652;2022-09-03T05:59:17;100541.16;;;12.89;100.00
70728;BME280;58314;47.722;17.652;2022-09-03T06:02:18;100537.69;;;13.04;100.00
70728;BME280;58314;47.722;17.652;2022-09-03T06:05:19;100545.22;;;13.12;100.00
70728;BME280;58314;47.722;17.652;2022-09-03T06:08:20;100538.22;;;13.27;100.00
70728;BME280;58314;47.722;17.652;2022-09-03T06:11:21;100547.34;;;13.39;100.00
70728;BME280;58314;47.722;17.652;2022-09-03T06:14:26;100538.78;;;13.49;100.00
70728;BME280;58314;47.722;17.652;2022-09-03T06:17:26;100531.22;;;13.58;100.00
70728;BME280;58314;47.722;17.652;2022-09-03T06:20:27;100532.06;;;13.74;100.00
70728;BME280;58314;47.722;17.652;2022-09-03T06:23:29;100531.25;;;13.88;100.00
70728;BME280;58314;47.722;17.652;2022-09-03T06:26:30;100532.53;;;13.97;100.00
70728;BME280;58314;47.722;17.652;2022-09-03T06:29:31;100533.53;;;14.10;100.00
70728;BME280;58314;47.722;17.652;2022-09-03T06:32:31;100532.13;;;14.19;100.00
70728;BME280;58314;47.722;17.652;2022-09-03T06:35:32;100531.13;;;14.36;100.00
70728;BME280;58314;47.722;17.652;2022-09-03T06:38:34;100521.81;;;14.43;100.00
70728;BME280;58314;47.722;17.652;2022-09-03T06:41:35;100524.50;;;14.43;100.00
70728;BME280;58314;47.722;17.652;2022-09-03T06:44:36;100522.78;;;14.56;100.00
70728;BME280;58314;47.722;17.652;2022-09-03T06:47:37;100525.50;;;14.71;100.00
70728;BME280;58314;47.722;17.652;2022-09-03T06:50:38;100523.69;;;14.85;98.97
70728;BME280;58314;47.722;17.652;2022-09-03T06:53:40;100514.91;;;14.98;98.42
70728;BME280;58314;47.722;17.652;2022-09-03T06:56:42;100518.81;;;15.06;95.87
70728;BME280;58314;47.722;17.652;2022-09-03T06:59:43;100522.69;;;15.15;96.54
70728;BME280;58314;47.722;17.652;2022-09-03T07:02:43;100524.09;;;15.35;96.04
70728;BME280;58314;47.722;17.652;2022-09-03T07:05:45;100520.53;;;15.49;93.84
70728;BME280;58314;47.722;17.652;2022-09-03T07:08:46;100524.78;;;15.66;90.84
70728;BME280;58314;47.722;17.652;2022-09-03T07:11:47;100520.75;;;15.73;91.61
70728;BME280;58314;47.722;17.652;2022-09-03T07:14:48;100527.34;;;15.95;88.05
70728;BME280;58314;47.722;17.652;2022-09-03T07:17:49;100534.34;;;16.10;89.18
70728;BME280;58314;47.722;17.652;2022-09-03T07:20:50;100525.19;;;16.27;86.74
70728;BME280;58314;47.722;17.652;2022-09-03T07:23:52;100523.50;;;16.39;87.07
70728;BME280;58314;47.722;17.652;2022-09-03T07:26:53;100525.63;;;16.72;85.64
70728;BME280;58314;47.722;17.652;2022-09-03T07:29:54;100528.44;;;16.84;84.25
70728;BME280;58314;47.722;17.652;2022-09-03T07:32:54;100527.13;;;17.02;80.89
70728;BME280;58314;47.722;17.652;2022-09-03T07:35:55;100527.50;;;17.22;79.38
70728;BME280;58314;47.722;17.652;2022-09-03T07:39:01;100528.75;;;17.42;78.46
70728;BME280;58314;47.722;17.652;2022-09-03T07:42:03;100525.47;;;17.62;77.00
70728;BME280;58314;47.722;17.652;2022-09-03T07:45:06;100528.19;;;17.74;76.64
70728;BME280;58314;47.722;17.652;2022-09-03T07:48:10;100522.91;;;17.85;75.80
70728;BME280;58314;47.722;17.652;2022-09-03T07:51:10;100526.53;;;17.97;72.86
70728;BME280;58314;47.722;17.652;2022-09-03T07:54:11;100529.00;;;18.11;72.53
70728;BME280;58314;47.722;17.652;2022-09-03T07:57:12;100518.94;;;18.26;73.04
70728;BME280;58314;47.722;17.652;2022-09-03T08:00:13;100520.59;;;18.51;72.54
70728;BME280;58314;47.722;17.652;2022-09-03T08:03:14;100525.34;;;18.59;71.21
70728;BME280;58314;47.722;17.652;2022-09-03T08:06:18;100530.09;;;18.78;71.51
70728;BME280;58314;47.722;17.652;2022-09-03T08:09:19;100526.16;;;18.84;69.49
70728;BME280;58314;47.722;17.652;2022-09-03T08:12:20;100531.97;;;19.00;71.65
70728;BME280;58314;47.722;17.652;2022-09-03T08:15:21;100526.47;;;19.13;67.63
70728;BME280;58314;47.722;17.652;2022-09-03T08:18:21;100519.66;;;19.20;67.95
70728;BME280;58314;47.722;17.652;2022-09-03T08:21:23;100523.41;;;19.40;67.64
70728;BME280;58314;47.722;17.652;2022-09-03T08:24:24;100526.69;;;19.44;66.14
70728;BME280;58314;47.722;17.652;2022-09-03T08:27:25;100525.06;;;19.64;65.81
70728;BME280;58314;47.722;17.652;2022-09-03T08:30:27;100523.56;;;19.71;66.25
70728;BME280;58314;47.722;17.652;2022-09-03T08:33:27;100524.41;;;19.83;65.64
70728;BME280;58314;47.722;17.652;2022-09-03T08:36:38;100527.38;;;20.01;65.49
70728;BME280;58314;47.722;17.652;2022-09-03T08:39:40;100528.66;;;20.18;62.67
70728;BME280;58314;47.722;17.652;2022-09-03T08:43:14;100521.19;;;20.42;61.75
70728;BME280;58314;47.722;17.652;2022-09-03T08:46:19;100519.78;;;20.48;62.33
70728;BME280;58314;47.722;17.652;2022-09-03T08:49:31;100518.03;;;20.58;62.39
70728;BME280;58314;47.722;17.652;2022-09-03T08:56:17;100506.56;;;20.77;58.84
70728;BME280;58314;47.722;17.652;2022-09-03T08:59:20;100494.97;;;20.56;59.42
70728;BME280;58314;47.722;17.652;2022-09-03T09:02:35;100503.34;;;20.83;60.49
70728;BME280;58314;47.722;17.652;2022-09-03T09:09:13;100499.31;;;21.09;54.88
70728;BME280;58314;47.722;17.652;2022-09-03T09:12:46;100496.97;;;21.35;57.35
70728;BME280;58314;47.722;17.652;2022-09-03T09:16:09;100500.44;;;21.66;55.86
70728;BME280;58314;47.722;17.652;2022-09-03T09:19:26;100490.25;;;21.79;55.60
70728;BME280;58314;47.722;17.652;2022-09-03T09:22:35;100480.88;;;21.84;54.50
70728;BME280;58314;47.722;17.652;2022-09-03T09:25:46;100488.53;;;22.08;53.19
70728;BME280;58314;47.722;17.652;2022-09-03T09:29:08;100482.88;;;22.21;52.92
70728;BME280;58314;47.722;17.652;2022-09-03T09:32:13;100490.75;;;22.51;52.89
70728;BME280;58314;47.722;17.652;2022-09-03T09:35:17;100488.47;;;22.56;51.04
70728;BME280;58314;47.722;17.652;2022-09-03T09:38:35;100484.25;;;22.91;52.16
70728;BME280;58314;47.722;17.652;2022-09-03T09:41:36;100474.00;;;23.23;51.24
70728;BME280;58314;47.722;17.652;2022-09-03T09:44:42;100470.94;;;23.36;49.09
70728;BME280;58314;47.722;17.652;2022-09-03T09:47:43;100477.31;;;23.17;50.39
70728;BME280;58314;47.722;17.652;2022-09-03T09:50:43;100469.50;;;23.59;51.32
70728;BME280;58314;47.722;17.652;2022-09-03T09:53:44;100476.97;;;23.65;47.88
70728;BME280;58314;47.722;17.652;2022-09-03T09:56:46;100472.19;;;23.77;46.79
70728;BME280;58314;47.722;17.652;2022-09-03T09:59:47;100472.59;;;24.53;47.00
70728;BME280;58314;47.722;17.652;2022-09-03T10:02:51;100473.47;;;24.53;45.51
70728;BME280;58314;47.722;17.652;2022-09-03T10:06:15;100469.88;;;24.71;46.81
70728;BME280;58314;47.722;17.652;2022-09-03T10:09:34;100480.84;;;24.69;44.39
70728;BME280;58314;47.722;17.652;2022-09-03T10:12:40;100471.13;;;25.27;43.51
70728;BME280;58314;47.722;17.652;2022-09-03T10:15:55;100470.97;;;24.94;42.82
70728;BME280;58314;47.722;17.652;2022-09-03T10:19:03;100460.69;;;25.06;43.46
70728;BME280;58314;47.722;17.652;2022-09-03T10:22:12;100461.69;;;25.48;43.89
70728;BME280;58314;47.722;17.652;2022-09-03T10:25:19;100460.88;;;25.72;42.44
70728;BME280;58314;47.722;17.652;2022-09-03T10:28:24;100463.84;;;26.59;42.13
70728;BME280;58314;47.722;17.652;2022-09-03T10:34:46;100457.78;;;26.65;38.74
70728;BME280;58314;47.722;17.652;2022-09-03T10:41:36;100462.66;;;27.10;37.69
70728;BME280;58314;47.722;17.652;2022-09-03T10:48:15;100451.78;;;27.10;37.38
70728;BME280;58314;47.722;17.652;2022-09-03T10:51:25;100451.75;;;28.48;34.72
70728;BME280;58314;47.722;17.652;2022-09-03T10:54:46;100454.28;;;28.50;33.50
70728;BME280;58314;47.722;17.652;2022-09-03T11:11:31;100447.69;;;30.55;29.69
70728;BME280;58314;47.722;17.652;2022-09-03T11:14:45;100444.31;;;32.50;29.80
70728;BME280;58314;47.722;17.652;2022-09-03T11:18:11;100440.72;;;30.24;30.59
70728;BME280;58314;47.722;17.652;2022-09-03T11:21:18;100427.72;;;32.04;29.02
70728;BME280;58314;47.722;17.652;2022-09-03T11:24:26;100442.19;;;30.90;29.42
70728;BME280;58314;47.722;17.652;2022-09-03T11:30:54;100434.72;;;32.14;27.83
70728;BME280;58314;47.722;17.652;2022-09-03T11:37:20;100435.16;;;30.67;30.68
70728;BME280;58314;47.722;17.652;2022-09-03T11:40:28;100440.91;;;29.51;31.03
70728;BME280;58314;47.722;17.652;2022-09-03T11:43:32;100435.00;;;31.24;28.67
70728;BME280;58314;47.722;17.652;2022-09-03T11:46:33;100437.78;;;32.57;26.89
70728;BME280;58314;47.722;17.652;2022-09-03T11:49:44;100432.50;;;34.10;26.15
70728;BME280;58314;47.722;17.652;2022-09-03T11:52:46;100431.28;;;33.81;25.57
70728;BME280;58314;47.722;17.652;2022-09-03T12:23:06;100415.88;;;33.80;25.07
70728;BME280;58314;47.722;17.652;2022-09-03T12:26:12;100417.19;;;31.68;28.05
70728;BME280;58314;47.722;17.652;2022-09-03T12:29:27;100417.63;;;31.91;27.19
70728;BME280;58314;47.722;17.652;2022-09-03T12:32:33;100410.25;;;32.25;27.71
70728;BME280;58314;47.722;17.652;2022-09-03T12:35:37;100413.22;;;32.89;25.86
70728;BME280;58314;47.722;17.652;2022-09-03T12:38:37;100418.22;;;32.34;25.75
70728;BME280;58314;47.722;17.652;2022-09-03T12:44:49;100415.50;;;34.01;24.49
70728;BME280;58314;47.722;17.652;2022-09-03T12:47:50;100409.81;;;33.71;25.07
70728;BME280;58314;47.722;17.652;2022-09-03T12:51:01;100400.34;;;33.92;25.17
70728;BME280;58314;47.722;17.652;2022-09-03T12:54:03;100394.53;;;34.07;24.29
70728;BME280;58314;47.722;17.652;2022-09-03T12:57:07;100394.00;;;34.17;24.65
70728;BME280;58314;47.722;17.652;2022-09-03T13:00:13;100395.28;;;32.41;26.66
70728;BME280;58314;47.722;17.652;2022-09-03T13:03:29;100400.28;;;30.69;28.95
70728;BME280;58314;47.722;17.652;2022-09-03T13:09:41;100391.88;;;30.71;28.74
70728;BME280;58314;47.722;17.652;2022-09-03T13:12:44;100391.50;;;32.02;27.30
70728;BME280;58314;47.722;17.652;2022-09-03T13:32:46;100364.88;;;32.50;27.52
70728;BME280;58314;47.722;17.652;2022-09-03T13:39:17;100363.56;;;30.78;29.65
70728;BME280;58314;47.722;17.652;2022-09-03T13:42:41;100367.50;;;32.04;28.44
70728;BME280;58314;47.722;17.652;2022-09-03T13:45:50;100356.66;;;33.01;27.08
70728;BME280;58314;47.722;17.652;2022-09-03T13:52:56;100357.22;;;33.17;25.91
70728;BME280;58314;47.722;17.652;2022-09-03T13:56:04;100350.50;;;31.76;27.81
70728;BME280;58314;47.722;17.652;2022-09-03T14:06:17;100349.66;;;29.47;30.81
70728;BME280;58314;47.722;17.652;2022-09-03T14:09:27;100343.38;;;28.67;31.61
70728;BME280;58314;47.722;17.652;2022-09-03T14:12:36;100346.84;;;28.46;32.83
70728;BME280;58314;47.722;17.652;2022-09-03T14:19:08;100342.81;;;28.12;33.97
70728;BME280;58314;47.722;17.652;2022-09-03T14:25:16;100342.53;;;27.69;35.28
70728;BME280;58314;47.722;17.652;2022-09-03T14:28:34;100355.59;;;27.27;35.14
70728;BME280;58314;47.722;17.652;2022-09-03T14:31:55;100349.50;;;27.71;36.04
70728;BME280;58314;47.722;17.652;2022-09-03T14:38:31;100356.72;;;28.32;33.64
70728;BME280;58314;47.722;17.652;2022-09-03T14:48:29;100339.38;;;32.62;26.98
70728;BME280;58314;47.722;17.652;2022-09-03T14:58:46;100335.69;;;32.30;28.14
70728;BME280;58314;47.722;17.652;2022-09-03T15:02:16;100339.53;;;32.74;26.55
70728;BME280;58314;47.722;17.652;2022-09-03T15:12:36;100339.47;;;32.81;27.54
70728;BME280;58314;47.722;17.652;2022-09-03T15:21:47;100341.00;;;32.77;27.35
70728;BME280;58314;47.722;17.652;2022-09-03T15:35:08;100326.72;;;30.61;29.86
70728;BME280;58314;47.722;17.652;2022-09-03T15:38:19;100329.56;;;29.26;31.72
70728;BME280;58314;47.722;17.652;2022-09-03T15:44:47;100329.59;;;28.90;32.93
70728;BME280;58314;47.722;17.652;2022-09-03T15:47:52;100332.41;;;27.63;35.95
70728;BME280;58314;47.722;17.652;2022-09-03T15:51:09;100333.44;;;26.92;37.77
70728;BME280;58314;47.722;17.652;2022-09-03T15:54:39;100335.22;;;26.77;39.87
70728;BME280;58314;47.722;17.652;2022-09-03T16:01:19;100340.34;;;26.72;37.79
70728;BME280;58314;47.722;17.652;2022-09-03T16:08:03;100333.06;;;26.24;39.99
70728;BME280;58314;47.722;17.652;2022-09-03T16:11:12;100341.63;;;25.80;41.14
70728;BME280;58314;47.722;17.652;2022-09-03T16:14:35;100341.28;;;26.00;40.37
70728;BME280;58314;47.722;17.652;2022-09-03T16:17:48;100345.66;;;25.92;40.72
70728;BME280;58314;47.722;17.652;2022-09-03T16:24:23;100351.09;;;25.43;41.81
70728;BME280;58314;47.722;17.652;2022-09-03T16:27:31;100351.97;;;25.35;44.27
70728;BME280;58314;47.722;17.652;2022-09-03T16:40:50;100371.94;;;24.67;45.10
70728;BME280;58314;47.722;17.652;2022-09-03T16:53:51;100357.97;;;23.67;49.82
70728;BME280;58314;47.722;17.652;2022-09-03T17:00:13;100366.31;;;23.38;50.60
70728;BME280;58314;47.722;17.652;2022-09-03T17:06:45;100362.06;;;22.71;55.87
70728;BME280;58314;47.722;17.652;2022-09-03T17:23:17;100364.50;;;21.99;58.36
70728;BME280;58314;47.722;17.652;2022-09-03T17:30:07;100373.88;;;21.66;59.98
70728;BME280;58314;47.722;17.652;2022-09-03T17:33:38;100375.72;;;21.66;58.96
70728;BME280;58314;47.722;17.652;2022-09-03T17:46:48;100394.13;;;21.12;62.68
70728;BME280;58314;47.722;17.652;2022-09-03T17:49:54;100398.63;;;21.01;63.98
70728;BME280;58314;47.722;17.652;2022-09-03T17:53:19;100396.91;;;20.91;63.98
70728;BME280;58314;47.722;17.652;2022-09-03T18:02:44;100416.97;;;20.77;66.82
70728;BME280;58314;47.722;17.652;2022-09-03T18:06:00;100427.81;;;20.65;67.57
70728;BME280;58314;47.722;17.652;2022-09-03T18:09:21;100423.44;;;20.64;66.21
70728;BME280;58314;47.722;17.652;2022-09-03T18:12:33;100428.97;;;20.42;66.28
70728;BME280;58314;47.722;17.652;2022-09-03T18:18:50;100436.06;;;20.01;67.84
70728;BME280;58314;47.722;17.652;2022-09-03T18:21:51;100431.41;;;20.03;67.56
70728;BME280;58314;47.722;17.652;2022-09-03T18:25:12;100434.84;;;19.72;70.53
70728;BME280;58314;47.722;17.652;2022-09-03T18:28:42;100425.28;;;19.59;70.39
70728;BME280;58314;47.722;17.652;2022-09-03T18:32:04;100433.59;;;19.44;72.34
70728;BME280;58314;47.722;17.652;2022-09-03T18:35:24;100440.94;;;19.42;72.10
70728;BME280;58314;47.722;17.652;2022-09-03T18:38:47;100432.28;;;19.50;72.52
70728;BME280;58314;47.722;17.652;2022-09-03T18:42:11;100439.53;;;19.59;72.18
70728;BME280;58314;47.722;17.652;2022-09-03T18:45:42;100432.81;;;19.65;71.77
70728;BME280;58314;47.722;17.652;2022-09-03T18:49:11;100443.66;;;19.63;73.03
70728;BME280;58314;47.722;17.652;2022-09-03T18:52:44;100440.19;;;19.51;72.11
70728;BME280;58314;47.722;17.652;2022-09-03T18:56:33;100434.84;;;19.40;72.71
70728;BME280;58314;47.722;17.652;2022-09-03T19:00:07;100435.84;;;19.39;75.04
70728;BME280;58314;47.722;17.652;2022-09-03T19:14:47;100440.53;;;19.26;73.32
70728;BME280;58314;47.722;17.652;2022-09-03T19:21:45;100435.16;;;19.26;73.43
70728;BME280;58314;47.722;17.652;2022-09-03T19:25:12;100438.56;;;19.16;73.58
70728;BME280;58314;47.722;17.652;2022-09-03T19:28:36;100438.97;;;19.12;74.19
70728;BME280;58314;47.722;17.652;2022-09-03T19:32:03;100438.84;;;19.02;74.30
70728;BME280;58314;47.722;17.652;2022-09-03T19:35:40;100435.19;;;19.03;74.59
70728;BME280;58314;47.722;17.652;2022-09-03T19:49:54;100449.13;;;18.86;75.46
70728;BME280;58314;47.722;17.652;2022-09-03T19:53:17;100457.41;;;18.83;76.38
70728;BME280;58314;47.722;17.652;2022-09-03T19:56:38;100442.38;;;18.80;75.82
70728;BME280;58314;47.722;17.652;2022-09-03T19:59:59;100453.59;;;18.74;75.66
70728;BME280;58314;47.722;17.652;2022-09-03T20:03:20;100452.88;;;18.83;75.03
70728;BME280;58314;47.722;17.652;2022-09-03T20:06:40;100458.34;;;18.81;73.88
70728;BME280;58314;47.722;17.652;2022-09-03T20:10:02;100453.25;;;18.90;75.24
70728;BME280;58314;47.722;17.652;2022-09-03T20:13:22;100468.50;;;18.89;73.51
70728;BME280;58314;47.722;17.652;2022-09-03T20:16:34;100469.34;;;19.01;72.21
70728;BME280;58314;47.722;17.652;2022-09-03T20:20:02;100475.19;;;18.95;72.60
70728;BME280;58314;47.722;17.652;2022-09-03T20:23:19;100476.38;;;19.02;73.47
70728;BME280;58314;47.722;17.652;2022-09-03T20:30:12;100480.19;;;18.88;73.01
70728;BME280;58314;47.722;17.652;2022-09-03T20:33:40;100479.81;;;18.93;71.14
70728;BME280;58314;47.722;17.652;2022-09-03T20:55:49;100485.03;;;18.72;71.88
70728;BME280;58314;47.722;17.652;2022-09-03T21:02:18;100485.66;;;18.75;70.82
70728;BME280;58314;47.722;17.652;2022-09-03T21:05:31;100492.34;;;18.70;70.83
70728;BME280;58314;47.722;17.652;2022-09-03T21:19:18;100504.47;;;18.29;72.77
70728;BME280;58314;47.722;17.652;2022-09-03T21:22:39;100504.41;;;18.17;73.03
70728;BME280;58314;47.722;17.652;2022-09-03T21:25:48;100511.91;;;18.36;72.38
70728;BME280;58314;47.722;17.652;2022-09-03T21:32:21;100497.88;;;18.21;72.51
70728;BME280;58314;47.722;17.652;2022-09-03T21:35:34;100512.50;;;18.29;72.32
70728;BME280;58314;47.722;17.652;2022-09-03T21:38:37;100507.25;;;18.16;73.65
70728;BME280;58314;47.722;17.652;2022-09-03T21:41:43;100507.97;;;18.18;72.74